Sao Joao de Meriti, Brazil
Current Conditions -  °F | °C
As of 8:18 PM on Sunday 23 Nov 2014 (Local Time) from SBAF Reporting Station
Light Rain Light Rain  
Wind Chill: 75°   Ceiling: 1200
Heat Index: 75°   Visibility: 2.1mi
Dew Point: 72°   Wind: 3mph
Humidity: 89%   Direction: 170°S
Pressure: 29.94"   Gusts: NA
Location:  22.8°S, 43.35°W
Report Text: SBAF 232218Z 17003KT 3500 -RA SCT008 BKN012 OVC070 24/22 Q1014
Loading
Personal Weather Stations






























Interactive Weather Map New forecast layout! Learn more

10-Day Weather Forecast

Advertisements
Track Severe Weather on mobile